createdAt,value
2019-02-17T00:00:34.992Z,6.60
2019-02-17T00:05:41.345Z,5.80
2019-02-17T00:10:43.641Z,6.97
2019-02-17T00:15:47.631Z,6.30
2019-02-17T00:20:50.061Z,5.90
2019-02-17T00:25:52.258Z,6.70
2019-02-17T00:30:56.990Z,6.33
2019-02-17T00:35:59.527Z,6.53
2019-02-17T00:41:07.044Z,6.97
2019-02-17T00:46:12.211Z,6.30
2019-02-17T00:51:14.946Z,5.90
2019-02-17T00:56:17.205Z,7.43
2019-02-17T01:01:19.535Z,7.17
2019-02-17T01:06:21.876Z,7.30
2019-02-17T01:11:26.566Z,7.50
2019-02-17T01:16:29.398Z,8.00
2019-02-17T01:21:31.596Z,7.60
2019-02-17T01:26:34.061Z,7.13
2019-02-17T01:31:36.311Z,7.27
2019-02-17T01:36:40.735Z,6.73
2019-02-17T01:41:42.922Z,7.60
2019-02-17T01:46:46.997Z,7.23
2019-02-17T01:51:50.864Z,7.33
2019-02-17T01:56:53.272Z,7.13
2019-02-17T02:01:55.565Z,7.07
2019-02-17T02:06:57.924Z,7.07
2019-02-17T02:12:03.065Z,7.13
2019-02-17T02:17:05.278Z,7.07
2019-02-17T02:22:11.952Z,6.70
2019-02-17T02:27:14.176Z,6.63
2019-02-17T02:32:18.194Z,6.53
2019-02-17T02:37:20.537Z,6.70
2019-02-17T02:42:22.911Z,7.13
2019-02-17T02:47:27.372Z,6.20
2019-02-17T02:52:29.600Z,6.77
2019-02-17T02:57:31.864Z,6.80
2019-02-17T03:02:34.161Z,7.57
2019-02-17T03:07:36.461Z,7.07
2019-02-17T03:12:38.755Z,6.07
2019-02-17T03:17:40.946Z,7.57
2019-02-17T03:22:43.128Z,7.70
2019-02-17T03:27:49.576Z,7.63
2019-02-17T03:32:53.640Z,7.67
2019-02-17T03:37:55.986Z,7.77
2019-02-17T03:42:59.064Z,7.93
2019-02-17T03:48:03.338Z,8.40
2019-02-17T03:53:07.413Z,7.80
2019-02-17T03:58:09.993Z,8.37
2019-02-17T04:03:14.005Z,7.43
2019-02-17T04:08:16.125Z,6.90
2019-02-17T04:13:18.390Z,7.90
2019-02-17T04:18:20.613Z,7.47
2019-02-17T04:23:31.401Z,7.13
2019-02-17T04:28:29.771Z,8.23
2019-02-17T04:33:32.031Z,7.93
2019-02-17T04:38:34.252Z,8.83
2019-02-17T04:43:36.413Z,9.00
2019-02-17T04:48:38.612Z,9.03
2019-02-17T04:53:41.981Z,8.77
2019-02-17T04:58:45.366Z,8.87
2019-02-17T05:03:48.123Z,8.87
2019-02-17T05:08:50.327Z,9.30
2019-02-17T05:13:54.527Z,8.73
2019-02-17T05:18:56.831Z,8.90
2019-02-17T05:23:59.052Z,9.50
2019-02-17T05:29:02.502Z,9.13
2019-02-17T05:34:04.923Z,8.90
2019-02-17T05:39:07.281Z,9.70
2019-02-17T05:44:09.494Z,9.07
2019-02-17T05:49:11.752Z,9.47
2019-02-17T05:54:14.062Z,9.87
2019-02-17T05:59:16.291Z,9.20
2019-02-17T06:04:20.777Z,9.07
2019-02-17T06:09:23.260Z,9.77
2019-02-17T06:14:25.455Z,10.27
2019-02-17T06:19:30.679Z,9.50
2019-02-17T06:24:32.904Z,8.90
2019-02-17T06:29:38.996Z,9.40
2019-02-17T06:34:41.205Z,9.43
2019-02-17T06:39:48.127Z,9.30
2019-02-17T06:44:50.504Z,9.53
2019-02-17T06:49:53.934Z,10.13
2019-02-17T06:55:07.078Z,10.10
2019-02-17T07:00:27.297Z,10.10
2019-02-17T07:05:49.364Z,11.23
2019-02-17T07:10:51.496Z,10.47
2019-02-17T07:15:53.768Z,11.13
2019-02-17T07:20:56.018Z,11.93
2019-02-17T07:26:08.074Z,11.73
2019-02-17T07:31:10.327Z,11.60
2019-02-17T07:36:14.387Z,11.57
2019-02-17T07:41:16.567Z,11.77
2019-02-17T07:46:21.974Z,12.63
2019-02-17T07:51:24.240Z,11.93
2019-02-17T07:56:26.509Z,12.67
2019-02-17T08:01:30.345Z,11.80
2019-02-17T08:06:32.657Z,12.67
2019-02-17T08:11:36.736Z,11.43
2019-02-17T08:16:39.099Z,12.37
2019-02-17T08:21:41.295Z,13.13
2019-02-17T08:26:43.502Z,12.50
2019-02-17T08:31:55.176Z,12.57
2019-02-17T08:36:51.756Z,12.57
2019-02-17T08:41:54.027Z,12.90
2019-02-17T08:46:56.173Z,13.07
2019-02-17T08:51:58.334Z,12.87
2019-02-17T08:57:01.605Z,13.20
2019-02-17T09:02:06.253Z,13.80
2019-02-17T09:07:07.958Z,14.93
2019-02-17T09:12:12.432Z,13.77
2019-02-17T09:17:18.953Z,13.90
2019-02-17T09:22:24.698Z,13.33
2019-02-17T09:27:30.751Z,14.23
2019-02-17T09:32:33.043Z,15.20
2019-02-17T09:37:35.341Z,14.60
2019-02-17T09:42:38.061Z,13.73
2019-02-17T09:47:45.393Z,13.77
2019-02-17T09:52:48.664Z,14.53
2019-02-17T09:57:54.258Z,15.53
2019-02-17T10:02:56.464Z,14.87
2019-02-17T10:07:58.785Z,14.67
2019-02-17T10:13:01.414Z,15.10
2019-02-17T10:18:03.842Z,14.57
2019-02-17T10:23:06.035Z,14.47
2019-02-17T10:28:08.536Z,15.23
2019-02-17T10:33:10.733Z,15.70
2019-02-17T10:38:14.788Z,15.67
2019-02-17T10:43:21.373Z,15.83
2019-02-17T10:48:27.508Z,15.23
2019-02-17T10:53:29.725Z,14.50
2019-02-17T10:58:31.929Z,16.03
2019-02-17T11:03:34.155Z,16.37
2019-02-17T11:08:36.371Z,15.60
2019-02-17T11:13:38.489Z,15.50
2019-02-17T11:18:40.665Z,15.30
2019-02-17T11:23:42.797Z,16.53
2019-02-17T11:28:46.278Z,16.53
2019-02-17T11:33:48.505Z,15.60
2019-02-17T11:38:50.743Z,15.17
2019-02-17T11:43:53.110Z,16.63
2019-02-17T11:48:55.275Z,15.80
2019-02-17T11:53:59.324Z,16.20
2019-02-17T11:59:01.514Z,15.30
2019-02-17T12:04:03.791Z,14.20
2019-02-17T12:09:13.086Z,15.27
2019-02-17T12:14:15.321Z,15.20
2019-02-17T12:19:17.611Z,16.47
2019-02-17T12:24:34.674Z,16.00
2019-02-17T12:29:51.160Z,16.20
2019-02-17T12:34:53.684Z,13.93
2019-02-17T12:39:55.899Z,14.30
2019-02-17T12:44:58.028Z,13.67
2019-02-17T12:50:00.260Z,13.93
2019-02-17T12:55:02.598Z,14.17
2019-02-17T13:00:11.334Z,13.97
2019-02-17T13:05:14.688Z,13.80
2019-02-17T13:10:17.036Z,13.67
2019-02-17T13:15:19.304Z,15.13
2019-02-17T13:20:25.357Z,14.53
2019-02-17T13:25:27.599Z,14.07
2019-02-17T13:30:29.879Z,13.40
2019-02-17T13:35:32.077Z,14.53
2019-02-17T13:40:34.311Z,13.53
2019-02-17T13:45:36.511Z,13.13
2019-02-17T13:50:38.728Z,13.90
2019-02-17T13:55:43.289Z,12.80
2019-02-17T14:00:46.591Z,12.90
2019-02-17T14:05:48.808Z,13.67
2019-02-17T14:10:51.373Z,13.43
2019-02-17T14:15:55.390Z,13.00
2019-02-17T14:21:02.778Z,14.20
2019-02-17T14:26:05.087Z,14.40
2019-02-17T14:31:09.328Z,13.30
2019-02-17T14:36:11.554Z,13.77
2019-02-17T14:41:14.314Z,13.83
2019-02-17T14:46:16.699Z,12.80
2019-02-17T14:51:19.078Z,11.27
2019-02-17T14:56:21.367Z,13.17
2019-02-17T15:01:26.559Z,13.43
2019-02-17T15:06:28.765Z,16.07
2019-02-17T15:11:30.945Z,15.13
2019-02-17T15:16:33.058Z,14.30
2019-02-17T15:21:35.286Z,16.00
2019-02-17T15:26:39.752Z,16.57
2019-02-17T15:31:42.102Z,18.20
2019-02-17T15:36:45.911Z,14.83
2019-02-17T15:41:48.537Z,15.33
2019-02-17T15:46:50.779Z,16.27
2019-02-17T15:51:53.039Z,17.70
2019-02-17T15:56:55.258Z,16.20
2019-02-17T16:01:57.470Z,15.53
2019-02-17T16:06:59.647Z,15.47
2019-02-17T16:12:02.022Z,16.90
2019-02-17T16:17:04.380Z,17.07
2019-02-17T16:22:08.363Z,17.50
2019-02-17T16:27:10.585Z,15.40
2019-02-17T16:32:14.334Z,16.73
2019-02-17T16:37:16.628Z,16.73
2019-02-17T16:42:21.010Z,17.77
2019-02-17T16:47:23.247Z,17.40
2019-02-17T16:52:27.379Z,17.50
2019-02-17T16:57:29.555Z,18.57
2019-02-17T17:02:42.207Z,17.27
2019-02-17T17:07:45.736Z,17.13
2019-02-17T17:12:48.069Z,18.93
2019-02-17T17:17:50.665Z,19.00
2019-02-17T17:22:54.711Z,20.10
2019-02-17T17:27:57.033Z,19.60
2019-02-17T17:33:01.453Z,19.87
2019-02-17T17:38:03.886Z,19.73
2019-02-17T17:43:06.268Z,19.80
2019-02-17T17:48:08.597Z,18.63
2019-02-17T17:53:12.575Z,19.37
2019-02-17T17:58:14.794Z,20.27
2019-02-17T18:03:17.022Z,20.73
2019-02-17T18:08:19.320Z,19.70
2019-02-17T18:13:22.090Z,19.70
2019-02-17T18:18:24.876Z,20.10
2019-02-17T18:23:27.619Z,21.47
2019-02-17T18:28:31.135Z,21.07
2019-02-17T18:33:33.402Z,18.80
2019-02-17T18:38:35.609Z,15.77
2019-02-17T18:43:37.829Z,14.47
2019-02-17T18:48:41.886Z,12.00
2019-02-17T18:53:45.951Z,11.07
2019-02-17T18:58:49.901Z,10.40
2019-02-17T19:03:52.057Z,9.90
2019-02-17T19:08:58.752Z,9.60
2019-02-17T19:14:02.911Z,9.17
2019-02-17T19:19:05.211Z,9.43
2019-02-17T19:24:07.518Z,9.20
2019-02-17T19:29:09.797Z,9.63
2019-02-17T19:34:13.932Z,9.93
2019-02-17T19:39:16.417Z,8.53
2019-02-17T19:44:18.721Z,8.37
2019-02-17T19:49:20.944Z,8.80
2019-02-17T19:54:24.828Z,8.20
2019-02-17T19:59:27.044Z,8.17
2019-02-17T20:04:40.046Z,8.37
2019-02-17T20:09:44.088Z,8.00
2019-02-17T20:14:46.389Z,7.80
2019-02-17T20:19:51.564Z,8.07
2019-02-17T20:24:55.635Z,8.00
2019-02-17T20:29:57.803Z,8.87
2019-02-17T20:35:00.320Z,8.77
2019-02-17T20:40:06.235Z,9.23
2019-02-17T20:45:08.738Z,8.83
2019-02-17T20:50:10.965Z,8.70
2019-02-17T20:55:13.218Z,9.30
2019-02-17T21:00:16.292Z,8.63
2019-02-17T21:05:22.101Z,9.40
2019-02-17T21:10:25.446Z,9.90
2019-02-17T21:15:27.619Z,9.37
2019-02-17T21:20:30.153Z,10.30
2019-02-17T21:25:35.698Z,10.00
2019-02-17T21:30:37.925Z,9.97
2019-02-17T21:35:40.086Z,10.27
2019-02-17T21:40:44.061Z,10.60
2019-02-17T21:45:46.785Z,11.73
2019-02-17T21:50:48.958Z,10.50
2019-02-17T21:55:51.180Z,10.80
2019-02-17T22:00:53.699Z,10.90
2019-02-17T22:05:55.937Z,10.63
2019-02-17T22:10:58.262Z,10.20
2019-02-17T22:16:00.481Z,11.20
2019-02-17T22:21:02.666Z,11.23
2019-02-17T22:26:04.991Z,10.70
2019-02-17T22:31:07.313Z,11.33
2019-02-17T22:36:09.579Z,11.30
2019-02-17T22:41:14.866Z,9.80
2019-02-17T22:46:17.394Z,10.13
2019-02-17T22:51:20.820Z,10.37
2019-02-17T22:56:25.242Z,11.33
2019-02-17T23:01:35.342Z,10.57
2019-02-17T23:06:37.677Z,10.53
2019-02-17T23:11:41.802Z,11.00
2019-02-17T23:16:44.055Z,10.07
2019-02-17T23:21:48.342Z,10.60
2019-02-17T23:26:50.412Z,10.43
2019-02-17T23:31:52.552Z,9.73
2019-02-17T23:37:03.509Z,10.27
2019-02-17T23:41:58.593Z,9.23
2019-02-17T23:47:00.706Z,10.63
2019-02-17T23:52:02.764Z,10.30
2019-02-17T23:57:04.845Z,10.90
